Time;durP1;ratioP1;P1;durP2;ratioP2;P2;SDS_P1;SDS_P2;PMS_P1;PMS_P2;Temp;Humidity;BMP_temperature;BMP_pressure;BME280_temperature;BME280_humidity;BME280_pressure;Samples;Min_cycle;Max_cycle;Signal;HPM_P1;HPM_P2
2020/12/30 00:01:23;;;;;;;11.68;6.47;;;;;;;5.61;74.93;100777.12;1735460;82;26135;-55
2020/12/30 00:03:51;;;;;;;8.80;5.58;;;;;;;5.66;75.34;100783.97;1735450;82;27610;-55
2020/12/30 00:06:20;;;;;;;10.20;6.20;;;;;;;5.68;75.21;100782.06;1735133;82;25689;-54
2020/12/30 00:08:49;;;;;;;8.53;5.20;;;;;;;5.71;75.49;100784.50;1733644;82;25710;-55
2020/12/30 00:11:17;;;;;;;9.53;5.42;;;;;;;5.71;75.13;100786.71;1801337;79;25630;-55
2020/12/30 00:13:45;;;;;;;10.80;5.30;;;;;;;5.72;75.23;100784.88;1801371;79;25730;-56
2020/12/30 00:16:13;;;;;;;9.05;5.47;;;;;;;5.74;75.59;100782.97;1733040;82;27583;-55
2020/12/30 00:18:41;;;;;;;10.72;5.55;;;;;;;5.67;74.79;100785.20;1732863;82;25461;-55
2020/12/30 00:21:11;;;;;;;15.78;5.55;;;;;;;5.62;75.36;100780.17;1732410;82;25803;-56
2020/12/30 00:23:39;;;;;;;12.37;5.45;;;;;;;5.50;74.55;100782.34;1733701;82;26134;-55
2020/12/30 00:26:07;;;;;;;12.43;6.03;;;;;;;5.41;74.63;100790.48;1770574;81;25671;-55
2020/12/30 00:28:35;;;;;;;17.52;5.90;;;;;;;5.35;74.56;100782.02;1770519;81;27535;-55
2020/12/30 00:31:03;;;;;;;10.20;6.00;;;;;;;5.31;74.70;100782.24;1770642;81;25736;-55
2020/12/30 00:33:30;;;;;;;15.68;6.62;;;;;;;5.26;74.68;100783.50;1770734;80;25678;-55
2020/12/30 00:35:58;;;;;;;10.93;6.25;;;;;;;5.17;74.75;100784.48;1770816;81;25666;-56
2020/12/30 00:38:26;;;;;;;12.73;6.47;;;;;;;5.16;75.02;100777.44;1752637;81;25760;-55
2020/12/30 00:40:54;;;;;;;8.40;5.75;;;;;;;5.14;74.84;100779.84;1763886;80;26784;-55
2020/12/30 00:43:22;;;;;;;16.95;7.35;;;;;;;5.09;74.53;100772.59;1723791;83;25733;-54
2020/12/30 00:45:51;;;;;;;14.70;6.78;;;;;;;5.01;74.46;100776.63;1724091;82;25719;-55
2020/12/30 00:48:20;;;;;;;10.63;5.80;;;;;;;4.94;74.42;100778.45;1723916;82;25645;-56
2020/12/30 00:50:48;;;;;;;12.43;6.12;;;;;;;4.91;74.54;100783.51;1792244;79;25721;-55
2020/12/30 00:53:16;;;;;;;14.55;6.90;;;;;;;4.84;74.53;100780.87;1792314;80;27515;-55
2020/12/30 00:55:44;;;;;;;14.98;7.53;;;;;;;4.78;74.75;100783.94;1792229;80;26150;-55
2020/12/30 00:58:22;;;;;;;13.60;6.35;;;;;;;4.79;74.87;100781.66;1833244;78;25667;-55
2020/12/30 01:00:52;;;;;;;13.25;7.05;;;;;;;4.75;75.49;100782.30;1805502;79;25721;-55
2020/12/30 01:03:24;;;;;;;13.25;6.83;;;;;;;4.76;75.43;100781.84;1767291;79;27822;-55
2020/12/30 01:05:52;;;;;;;12.68;7.35;;;;;;;4.79;75.76;100764.33;1805554;79;25495;-55
2020/12/30 01:08:20;;;;;;;10.95;6.70;;;;;;;4.82;75.76;100756.11;1805568;79;25689;-58
2020/12/30 01:10:47;;;;;;;11.88;7.03;;;;;;;4.84;75.87;100756.88;1805582;79;25785;-57
2020/12/30 01:13:16;;;;;;;10.68;7.03;;;;;;;4.88;76.13;100753.08;1763901;79;26170;-56
2020/12/30 01:15:44;;;;;;;14.53;7.35;;;;;;;4.90;76.04;100751.63;1754986;81;28530;-55
2020/12/30 01:18:13;;;;;;;12.82;6.70;;;;;;;4.95;76.26;100753.50;1755026;81;26242;-55
2020/12/30 01:20:40;;;;;;;9.20;6.55;;;;;;;4.97;76.26;100759.14;1754887;81;25642;-55
2020/12/30 01:23:08;;;;;;;14.28;6.37;;;;;;;5.03;76.36;100770.34;1766414;79;25684;-56
2020/12/30 01:25:37;;;;;;;15.98;6.42;;;;;;;5.08;76.42;100762.42;1773884;80;25694;-55
2020/12/30 01:28:05;;;;;;;12.28;6.67;;;;;;;5.11;76.17;100752.88;1784619;79;28384;-56
2020/12/30 01:30:33;;;;;;;17.12;6.97;;;;;;;5.12;76.24;100747.91;1805583;79;25415;-55
2020/12/30 01:33:00;;;;;;;11.85;6.17;;;;;;;5.12;76.49;100743.91;1805401;79;25599;-55
2020/12/30 01:35:28;;;;;;;14.25;6.47;;;;;;;5.08;76.46;100752.22;1804949;78;26539;-55
2020/12/30 01:37:56;;;;;;;12.43;6.67;;;;;;;5.12;76.36;100768.41;1792858;79;26067;-55
2020/12/30 01:40:24;;;;;;;8.68;5.90;;;;;;;5.12;76.32;100773.25;1786741;78;26568;-55
2020/12/30 01:42:52;;;;;;;12.05;6.20;;;;;;;5.16;76.65;100769.90;1786814;78;26532;-55
2020/12/30 01:45:20;;;;;;;10.18;6.03;;;;;;;5.19;76.37;100782.20;1805284;79;25623;-55
2020/12/30 01:47:50;;;;;;;11.80;5.97;;;;;;;5.19;76.29;100791.53;1805318;79;25695;-56
2020/12/30 01:50:19;;;;;;;9.13;5.95;;;;;;;5.21;76.23;100790.47;1773863;80;26284;-54
2020/12/30 01:52:47;;;;;;;7.95;5.87;;;;;;;5.14;75.85;100788.67;1778815;79;27528;-55
2020/12/30 01:55:17;;;;;;;11.20;5.83;;;;;;;5.12;75.87;100780.41;1774087;79;25708;-55
2020/12/30 01:57:45;;;;;;;12.93;6.28;;;;;;;5.03;75.41;100783.19;1768214;79;25979;-55
2020/12/30 02:00:13;;;;;;;14.40;6.92;;;;;;;4.93;75.44;100787.43;1765915;81;25722;-55
2020/12/30 02:02:46;;;;;;;12.07;6.40;;;;;;;4.91;75.86;100780.84;1787247;79;25713;-55
2020/12/30 02:05:18;;;;;;;9.05;6.33;;;;;;;4.89;75.84;100777.41;1792579;79;28369;-56
2020/12/30 02:07:46;;;;;;;12.70;6.30;;;;;;;4.80;75.50;100782.87;1794138;79;25645;-56
2020/12/30 02:10:16;;;;;;;9.40;6.12;;;;;;;4.71;75.49;100779.47;1792890;79;25578;-55
2020/12/30 02:12:45;;;;;;;11.12;6.87;;;;;;;4.64;75.37;100780.33;1779066;79;25651;-55
2020/12/30 02:15:31;;;;;;;12.93;6.80;;;;;;;4.53;75.22;100773.48;1762889;79;25675;-55
2020/12/30 02:18:00;;;;;;;12.37;7.28;;;;;;;4.46;75.23;100777.49;1764659;79;27523;-55
2020/12/30 02:20:30;;;;;;;13.65;7.30;;;;;;;4.41;75.43;100779.61;1762476;81;26269;-55
2020/12/30 02:23:05;;;;;;;12.15;6.97;;;;;;;4.38;75.43;100774.84;1762823;79;25753;-57
2020/12/30 02:25:34;;;;;;;12.13;6.62;;;;;;;4.35;75.50;100779.02;1763139;79;25650;-57
2020/12/30 02:28:01;;;;;;;20.97;7.50;;;;;;;4.30;75.41;100782.45;1762644;81;26084;-58
2020/12/30 02:30:30;;;;;;;13.62;7.33;;;;;;;4.23;75.32;100786.46;1762812;79;27804;-57
2020/12/30 02:32:57;;;;;;;11.25;7.37;;;;;;;4.15;75.45;100779.42;1762310;79;25695;-58
2020/12/30 02:35:25;;;;;;;14.50;7.67;;;;;;;4.10;75.42;100777.05;1762636;81;25483;-57
2020/12/30 02:37:55;;;;;;;10.20;6.12;;;;;;;4.05;75.62;100775.99;1766365;79;25658;-58
2020/12/30 02:40:23;;;;;;;17.67;7.62;;;;;;;4.04;75.99;100791.58;1787192;79;25711;-57
2020/12/30 02:42:52;;;;;;;12.65;7.90;;;;;;;4.05;76.88;100779.11;1794399;79;28495;-57
2020/12/30 02:45:20;;;;;;;26.35;8.50;;;;;;;4.00;75.99;100787.87;1794233;79;25655;-57
2020/12/30 02:47:49;;;;;;;15.00;7.55;;;;;;;3.97;76.18;100792.91;1768487;79;25541;-55
2020/12/30 02:50:17;;;;;;;11.57;6.65;;;;;;;4.00;76.55;100792.70;1762645;81;25592;-57
2020/12/30 02:52:45;;;;;;;13.32;7.70;;;;;;;4.05;76.69;100789.30;1762637;79;25707;-58
2020/12/30 02:55:13;;;;;;;12.98;7.50;;;;;;;4.12;76.86;100798.23;1762611;81;28483;-57
2020/12/30 02:57:42;;;;;;;17.67;8.40;;;;;;;4.11;76.26;100790.73;1769361;79;26145;-57
2020/12/30 03:00:10;;;;;;;15.50;7.58;;;;;;;4.13;76.39;100794.14;1779989;79;25711;-56
2020/12/30 03:02:37;;;;;;;11.75;6.80;;;;;;;4.10;76.12;100781.03;1779430;80;25667;-58
2020/12/30 03:05:06;;;;;;;11.18;7.05;;;;;;;4.07;76.45;100786.08;1779778;79;25427;-57
2020/12/30 03:07:34;;;;;;;12.03;6.97;;;;;;;4.02;76.44;100773.51;1779715;79;27650;-57
2020/12/30 03:10:03;;;;;;;10.68;6.67;;;;;;;3.96;75.77;100784.54;1779352;80;25474;-57
2020/12/30 03:12:31;;;;;;;11.40;6.45;;;;;;;3.89;75.59;100787.20;1779384;79;25600;-56
2020/12/30 03:14:59;;;;;;;9.63;6.37;;;;;;;3.87;76.12;100788.59;1808487;79;26144;-57
2020/12/30 03:17:27;;;;;;;9.60;6.17;;;;;;;3.94;76.43;100785.59;1811329;79;26610;-57
2020/12/30 03:19:56;;;;;;;8.70;5.60;;;;;;;3.92;76.06;100796.30;1783451;78;28362;-56
2020/12/30 03:22:24;;;;;;;18.62;8.43;;;;;;;3.91;76.14;100787.94;1810919;79;26208;-58
2020/12/30 03:24:52;;;;;;;17.73;9.50;;;;;;;3.86;75.89;100784.71;1811447;79;26191;-57
2020/12/30 03:27:20;;;;;;;17.27;9.10;;;;;;;3.85;76.06;100777.22;1811522;79;25722;-58
2020/12/30 03:29:48;;;;;;;19.02;10.43;;;;;;;3.84;75.84;100774.62;1786534;79;25672;-58
2020/12/30 03:32:16;;;;;;;19.98;9.28;;;;;;;3.84;76.01;100766.19;1779388;79;27589;-57
2020/12/30 03:34:44;;;;;;;16.67;9.75;;;;;;;3.84;75.77;100755.54;1784556;79;25616;-57
2020/12/30 03:37:12;;;;;;;15.85;9.60;;;;;;;3.80;75.35;100755.33;1747525;82;25647;-58
2020/12/30 03:39:40;;;;;;;13.95;8.65;;;;;;;3.74;75.34;100757.88;1800640;79;25433;-57
2020/12/30 03:42:08;;;;;;;14.47;9.25;;;;;;;3.72;74.97;100754.94;1780280;79;25680;-57
2020/12/30 03:44:36;;;;;;;13.62;8.73;;;;;;;3.59;74.75;100763.64;1779309;80;27584;-56
2020/12/30 03:47:06;;;;;;;10.58;7.70;;;;;;;3.53;74.95;100766.67;1779436;80;25783;-57
2020/12/30 03:49:34;;;;;;;13.80;7.15;;;;;;;3.48;74.85;100770.55;1794133;79;25704;-57
2020/12/30 03:52:03;;;;;;;10.08;8.13;;;;;;;3.38;74.85;100760.94;1811504;79;25743;-58
2020/12/30 03:54:31;;;;;;;17.40;9.05;;;;;;;3.30;75.03;100756.06;1811451;79;25686;-57
2020/12/30 03:56:59;;;;;;;13.08;7.85;;;;;;;3.24;75.40;100755.94;1788488;79;27536;-57
2020/12/30 03:59:27;;;;;;;12.00;7.95;;;;;;;3.23;75.81;100756.04;1763015;80;25592;-57
2020/12/30 04:01:56;;;;;;;10.32;7.03;;;;;;;3.22;75.90;100775.14;1762697;79;25699;-57
2020/12/30 04:04:24;;;;;;;11.57;7.62;;;;;;;3.20;76.72;100761.07;1754812;81;25746;-57
2020/12/30 04:06:51;;;;;;;11.35;7.00;;;;;;;3.17;76.45;100755.92;1759631;79;25701;-58
2020/12/30 04:09:20;;;;;;;11.85;6.67;;;;;;;3.18;76.72;100755.47;1762624;79;29007;-57
2020/12/30 04:11:48;;;;;;;13.28;7.25;;;;;;;3.22;76.98;100758.31;1768869;79;25621;-57
2020/12/30 04:14:15;;;;;;;14.25;6.60;;;;;;;3.24;76.97;100756.42;1793819;79;25449;-57
2020/12/30 04:16:43;;;;;;;13.18;7.15;;;;;;;3.28;77.12;100752.63;1775918;79;26134;-57
2020/12/30 04:19:11;;;;;;;11.38;7.20;;;;;;;3.37;77.35;100749.43;1762871;79;25559;-57
2020/12/30 04:21:39;;;;;;;13.25;7.35;;;;;;;3.34;76.65;100754.95;1762972;79;28512;-57
2020/12/30 04:24:07;;;;;;;11.63;6.35;;;;;;;3.36;76.89;100758.34;1762541;79;25612;-57
2020/12/30 04:26:35;;;;;;;10.93;5.90;;;;;;;3.45;77.33;100758.30;1762601;79;25663;-56
2020/12/30 04:29:05;;;;;;;14.23;7.53;;;;;;;3.54;77.32;100762.23;1766972;79;25684;-57
2020/12/30 04:31:34;;;;;;;14.73;7.12;;;;;;;3.60;77.18;100762.70;1793641;79;25718;-56
2020/12/30 04:34:07;;;;;;;19.57;7.22;;;;;;;3.69;77.36;100767.96;1776696;79;27952;-56
2020/12/30 04:36:36;;;;;;;10.28;6.58;;;;;;;3.76;77.24;100753.33;1782067;79;26163;-55
2020/12/30 04:39:03;;;;;;;10.43;6.22;;;;;;;3.82;76.75;100757.88;1793049;79;25639;-56
2020/12/30 04:41:38;;;;;;;12.07;5.65;;;;;;;3.81;76.14;100759.70;1794599;78;26616;-56
2020/12/30 04:44:07;;;;;;;10.25;5.70;;;;;;;3.72;76.02;100754.94;1792338;79;25724;-56
2020/12/30 04:46:36;;;;;;;9.50;5.65;;;;;;;3.60;75.48;100765.36;1762603;79;28432;-56
2020/12/30 04:49:04;;;;;;;13.48;8.28;;;;;;;3.62;76.03;100755.10;1745980;79;26116;-56
2020/12/30 04:51:35;;;;;;;19.17;9.90;;;;;;;3.63;76.20;100756.82;1793715;79;25560;-56
2020/12/30 04:54:05;;;;;;;14.35;7.72;;;;;;;3.63;76.45;100758.98;1779163;79;25703;-56
2020/12/30 04:56:58;;;;;;;11.00;7.62;;;;;;;3.59;76.15;100756.15;1763242;79;25716;-57
2020/12/30 04:59:42;;;;;;;12.90;8.65;;;;;;;3.52;75.94;100756.14;1762506;80;28502;-56
2020/12/30 05:02:12;;;;;;;;;;;;;;;3.47;75.93;100744.44;1765900;80;26404;-57
2020/12/30 05:04:41;;;;;;;18.92;8.45;;;;;;;3.40;75.85;100739.11;1762443;80;25597;-56
2020/12/30 05:07:13;;;;;;;18.12;8.63;;;;;;;3.38;76.03;100743.66;1762528;80;25784;-56
2020/12/30 05:09:44;;;;;;;14.80;8.90;;;;;;;3.38;76.06;100744.50;1762385;80;25627;-56
2020/12/30 05:12:15;;;;;;;10.72;7.97;;;;;;;3.35;76.17;100743.83;1762637;80;27531;-56
2020/12/30 05:14:45;;;;;;;12.98;8.05;;;;;;;3.35;76.17;100750.47;1762485;80;25693;-56
2020/12/30 05:17:14;;;;;;;19.40;10.82;;;;;;;3.29;76.11;100741.92;1762966;80;25633;-56
2020/12/30 05:19:45;;;;;;;19.48;8.55;;;;;;;3.24;76.22;100736.00;1762531;80;25818;-55
2020/12/30 05:22:18;;;;;;;12.73;8.45;;;;;;;3.23;76.34;100736.94;1762252;81;25749;-56
2020/12/30 05:24:48;;;;;;;14.03;8.20;;;;;;;3.23;76.35;100743.59;1763311;80;27521;-56
2020/12/30 05:27:18;;;;;;;24.65;12.03;;;;;;;3.23;76.58;100737.43;1773309;79;25644;-56
2020/12/30 05:32:35;;;;;;;15.85;9.05;;;;;;;3.40;78.23;100741.28;1817998;78;25537;-57
2020/12/30 05:35:06;;;;;;;;;;;;;;;3.33;77.33;100747.91;1724024;83;25622;-58
2020/12/30 05:37:35;;;;;;;20.57;9.25;;;;;;;3.37;77.49;100745.92;1744341;80;27533;-57
2020/12/30 05:40:15;;;;;;;13.58;8.35;;;;;;;3.39;77.71;100751.53;1716068;82;26575;-57
2020/12/30 05:42:43;;;;;;;14.60;8.43;;;;;;;3.44;77.82;100749.93;1726555;82;25478;-57
2020/12/30 05:45:24;;;;;;;15.78;9.20;;;;;;;3.49;77.66;100760.30;1737002;82;25765;-57
2020/12/30 05:47:52;;;;;;;18.07;8.55;;;;;;;3.54;77.94;100766.22;1711902;82;25529;-57
2020/12/30 05:50:24;;;;;;;17.77;8.58;;;;;;;3.62;78.08;100755.98;1711423;83;27528;-57
2020/12/30 05:52:53;;;;;;;11.90;8.10;;;;;;;3.67;77.73;100764.52;1707202;84;25696;-58
2020/12/30 05:55:26;;;;;;;16.20;7.50;;;;;;;3.69;77.71;100770.62;1712557;81;25596;-57
2020/12/30 05:57:54;;;;;;;13.50;7.45;;;;;;;3.76;77.81;100772.45;1730014;81;25739;-57
2020/12/30 06:00:27;;;;;;;18.57;8.18;;;;;;;3.79;77.67;100773.57;1711319;83;25630;-58
2020/12/30 06:02:55;;;;;;;17.07;7.95;;;;;;;3.85;77.68;100782.54;1711463;83;28454;-57
2020/12/30 06:05:28;;;;;;;17.02;9.55;;;;;;;3.90;77.74;100779.56;1711256;82;25649;-57
2020/12/30 06:07:56;;;;;;;25.32;13.28;;;;;;;3.98;77.45;100781.31;1732906;82;25709;-57
2020/12/30 06:10:27;;;;;;;14.63;9.73;;;;;;;3.98;77.14;100775.13;1730742;82;25750;-57
2020/12/30 06:13:02;;;;;;;18.60;10.93;;;;;;;3.97;76.87;100762.30;1740794;82;26098;-57
2020/12/30 06:15:32;;;;;;;17.25;10.10;;;;;;;3.96;76.68;100767.69;1767489;81;27626;-57
2020/12/30 06:18:06;;;;;;;16.15;9.33;;;;;;;3.95;76.74;100780.16;1721774;82;25615;-57
2020/12/30 06:20:37;;;;;;;17.80;10.03;;;;;;;3.94;76.29;100781.11;1711221;83;25455;-56
2020/12/30 06:23:08;;;;;;;21.45;10.23;;;;;;;3.93;76.23;100782.05;1737115;81;25751;-57
2020/12/30 06:25:44;;;;;;;19.35;10.23;;;;;;;3.89;76.04;100772.56;1750266;80;26096;-57
2020/12/30 06:28:21;;;;;;;18.42;10.70;;;;;;;3.88;76.16;100770.36;1737617;81;27525;-58
2020/12/30 06:30:51;;;;;;;20.55;10.90;;;;;;;3.87;76.08;100762.47;1747957;80;26021;-57
2020/12/30 06:33:23;;;;;;;23.87;10.23;;;;;;;3.86;76.18;100766.08;1706186;84;25781;-57
2020/12/30 06:35:56;;;;;;;24.12;11.55;;;;;;;3.86;76.16;100763.42;1763142;81;25596;-57
2020/12/30 06:38:31;;;;;;;24.82;11.83;;;;;;;3.85;76.24;100768.36;1763244;81;25473;-58
2020/12/30 06:41:06;;;;;;;24.02;12.03;;;;;;;3.87;76.15;100783.27;1795710;78;27511;-57
2020/12/30 06:43:49;;;;;;;26.15;12.28;;;;;;;3.86;76.15;100769.58;1799871;79;25697;-57
2020/12/30 06:46:28;;;;;;;30.57;13.13;;;;;;;3.88;76.34;100765.52;1799817;79;25655;-57
2020/12/30 06:49:05;;;;;;;22.70;12.18;;;;;;;3.90;76.53;100767.13;1799698;79;26218;-57
2020/12/30 06:51:40;;;;;;;28.00;13.62;;;;;;;3.95;76.67;100753.55;1767609;79;26226;-57
2020/12/30 06:54:10;;;;;;;21.37;12.35;;;;;;;3.99;76.65;100754.20;1762500;81;27203;-57
2020/12/30 06:56:44;;;;;;;17.65;11.00;;;;;;;4.03;76.84;100753.92;1768978;79;25707;-57
2020/12/30 06:59:32;;;;;;;14.93;9.73;;;;;;;4.08;77.19;100753.16;1780688;79;25633;-57
2020/12/30 07:02:04;;;;;;;28.40;12.68;;;;;;;4.17;77.35;100752.23;1793719;79;25661;-57
2020/12/30 07:04:36;;;;;;;21.23;11.43;;;;;;;4.25;77.62;100753.06;1793858;79;25671;-57
2020/12/30 07:07:21;;;;;;;23.07;10.48;;;;;;;4.38;77.86;100748.70;1791559;79;26150;-57
2020/12/30 07:09:49;;;;;;;;;;;;;;;4.53;78.33;100756.17;1796584;79;25592;-56
2020/12/30 07:12:18;;;;;;;24.45;12.13;;;;;;;4.67;78.65;100754.83;1791747;79;25710;-56
2020/12/30 07:14:48;;;;;;;28.23;10.60;;;;;;;4.83;78.87;100762.70;1762585;79;26629;-56
2020/12/30 07:17:20;;;;;;;26.55;11.97;;;;;;;4.96;79.16;100758.76;1762819;79;25673;-56
2020/12/30 07:19:48;;;;;;;20.57;9.80;;;;;;;5.12;79.01;100756.41;1756448;80;27529;-57
2020/12/30 07:22:17;;;;;;;28.70;9.60;;;;;;;5.25;78.99;100747.11;1769188;78;25660;-55
2020/12/30 07:24:53;;;;;;;16.48;8.93;;;;;;;5.37;78.91;100748.97;1762455;81;25768;-56
2020/12/30 07:27:28;;;;;;;18.50;9.03;;;;;;;5.51;78.96;100750.70;1752966;79;25551;-55
2020/12/30 07:29:57;;;;;;;14.78;7.70;;;;;;;5.62;79.32;100747.30;1774698;79;26101;-56
2020/12/30 07:32:25;;;;;;;16.02;10.10;;;;;;;5.71;79.53;100750.67;1791066;79;27521;-56
2020/12/30 07:34:53;;;;;;;24.45;9.95;;;;;;;5.82;79.58;100752.59;1784023;79;25669;-56
2020/12/30 07:37:23;;;;;;;22.05;11.00;;;;;;;5.92;79.46;100752.80;1762426;80;25624;-56
2020/12/30 07:39:51;;;;;;;23.00;11.12;;;;;;;6.03;79.66;100754.78;1781019;79;25693;-56
2020/12/30 07:42:27;;;;;;;23.65;11.08;;;;;;;6.09;79.29;100746.33;1792787;79;26158;-55
2020/12/30 07:44:58;;;;;;;25.02;11.85;;;;;;;6.19;79.13;100744.72;1763834;79;27523;-56
2020/12/30 07:47:28;;;;;;;24.02;10.75;;;;;;;6.29;79.00;100745.41;1762351;81;26147;-56
2020/12/30 07:50:02;;;;;;;21.17;10.38;;;;;;;6.35;79.12;100740.95;1762423;81;25743;-56
2020/12/30 07:52:31;;;;;;;;;;;;;;;6.39;79.08;100751.80;1765068;81;25768;-56
2020/12/30 07:54:59;;;;;;;24.95;9.73;;;;;;;6.47;78.84;100749.44;1762508;81;26553;-56
2020/12/30 07:57:27;;;;;;;20.60;8.53;;;;;;;6.54;78.95;100750.70;1762591;81;26784;-56
2020/12/30 07:59:55;;;;;;;23.95;9.33;;;;;;;6.60;78.73;100749.41;1762453;81;25601;-56
2020/12/30 08:02:24;;;;;;;17.67;8.93;;;;;;;6.67;78.52;100745.31;1762564;81;25474;-57
2020/12/30 08:05:02;;;;;;;18.05;9.13;;;;;;;6.73;78.50;100744.86;1762467;81;25675;-56
2020/12/30 08:07:32;;;;;;;24.30;10.03;;;;;;;6.79;78.15;100750.25;1762197;81;25605;-56
2020/12/30 08:10:00;;;;;;;18.12;8.60;;;;;;;6.85;78.20;100749.81;1762503;81;27603;-56
2020/12/30 08:12:29;;;;;;;26.23;9.38;;;;;;;6.95;77.90;100745.97;1762045;81;26600;-56
2020/12/30 08:14:57;;;;;;;23.20;9.18;;;;;;;7.08;77.74;100743.23;1762208;81;25661;-55
2020/12/30 08:17:25;;;;;;;18.05;8.08;;;;;;;7.19;77.33;100745.97;1787941;79;25731;-56
2020/12/30 08:19:53;;;;;;;20.10;9.33;;;;;;;7.30;76.86;100745.66;1793708;79;25727;-56
2020/12/30 08:25:05;;;;;;;17.62;8.73;;;;;;;7.48;75.96;100734.02;1838321;78;25462;-56
2020/12/30 08:27:33;;;;;;;19.17;9.15;;;;;;;7.43;75.68;100731.70;1811262;79;25684;-55
2020/12/30 08:30:02;;;;;;;16.70;9.40;;;;;;;7.43;75.55;100733.03;1731977;82;27538;-55
2020/12/30 08:32:35;;;;;;;18.05;8.43;;;;;;;7.50;75.24;100726.73;1762257;81;25711;-55
2020/12/30 08:35:31;;;;;;;18.10;8.95;;;;;;;7.62;74.99;100725.77;1748774;82;25735;-54
2020/12/30 08:38:15;;;;;;;21.23;10.03;;;;;;;7.89;74.23;100725.10;1748808;81;25735;-57
2020/12/30 08:40:46;;;;;;;24.60;10.03;;;;;;;8.02;74.32;100733.90;1740911;81;25684;-56
2020/12/30 08:43:46;;;;;;;18.50;9.25;;;;;;;8.11;74.47;100729.63;1748319;81;27535;-55
2020/12/30 08:46:26;;;;;;;20.62;9.08;;;;;;;8.18;74.38;100725.98;1747170;81;25778;-56
2020/12/30 08:48:54;;;;;;;16.77;8.60;;;;;;;8.30;74.46;100719.16;1742866;81;25696;-56
2020/12/30 08:51:29;;;;;;;26.77;8.78;;;;;;;8.51;74.30;100713.08;1731103;82;26105;-55
2020/12/30 08:53:58;;;;;;;22.90;8.78;;;;;;;8.80;73.83;100713.01;1730862;82;25434;-55
2020/12/30 08:56:27;;;;;;;23.70;9.63;;;;;;;8.89;72.96;100707.72;1731177;82;27580;-56
2020/12/30 08:58:57;;;;;;;19.65;8.65;;;;;;;8.98;72.66;100706.12;1730882;82;25494;-56
2020/12/30 09:01:30;;;;;;;20.82;9.48;;;;;;;9.20;72.24;100698.95;1731283;82;25704;-56
2020/12/30 09:04:13;;;;;;;22.17;9.55;;;;;;;9.54;71.86;100700.13;1756351;81;25622;-56
2020/12/30 09:06:51;;;;;;;25.95;11.10;;;;;;;9.69;71.51;100690.75;1761280;81;25650;-56
2020/12/30 09:09:19;;;;;;;20.27;9.15;;;;;;;9.77;70.97;100687.38;1760969;81;27519;-56
2020/12/30 09:11:50;;;;;;;22.80;9.38;;;;;;;9.83;70.93;100690.03;1757786;81;26085;-56
2020/12/30 09:14:21;;;;;;;18.82;9.70;;;;;;;9.87;69.87;100690.13;1731082;82;25820;-56
2020/12/30 09:17:04;;;;;;;23.30;9.80;;;;;;;10.12;69.07;100685.29;1730931;82;25507;-56
2020/12/30 09:19:31;;;;;;;14.30;8.38;;;;;;;10.10;68.92;100688.13;1749966;81;26069;-56
2020/12/30 09:22:11;;;;;;;14.80;7.95;;;;;;;10.18;69.16;100682.05;1743762;81;27513;-56
2020/12/30 09:24:42;;;;;;;16.65;8.63;;;;;;;10.20;68.51;100677.39;1735829;81;25720;-56
2020/12/30 09:27:22;;;;;;;19.50;9.10;;;;;;;10.22;68.40;100672.73;1716869;82;25740;-56
2020/12/30 09:30:14;;;;;;;17.70;7.65;;;;;;;10.38;68.20;100663.33;1729456;82;26112;-57
2020/12/30 09:32:46;;;;;;;18.62;8.70;;;;;;;10.56;67.76;100660.83;1711214;83;25667;-56
2020/12/30 09:35:17;;;;;;;17.40;8.85;;;;;;;10.72;67.76;100666.99;1778926;79;27450;-56
2020/12/30 09:37:54;;;;;;;19.87;8.73;;;;;;;10.94;68.03;100654.63;1778892;78;25643;-56
2020/12/30 09:40:23;;;;;;;18.40;9.65;;;;;;;11.30;67.17;100657.23;1779691;79;26047;-56
2020/12/30 09:42:53;;;;;;;16.20;8.63;;;;;;;11.38;66.88;100650.63;1779113;79;25714;-57
2020/12/30 09:45:21;;;;;;;16.75;9.45;;;;;;;11.62;66.43;100631.77;1753586;79;25799;-56
2020/12/30 09:47:49;;;;;;;20.32;8.88;;;;;;;11.85;65.25;100627.73;1788372;79;28510;-57
2020/12/30 09:50:17;;;;;;;19.70;8.53;;;;;;;12.13;64.08;100625.09;1796910;79;25845;-57
2020/12/30 09:52:46;;;;;;;18.07;8.53;;;;;;;12.21;63.49;100619.79;1780367;79;25831;-57
2020/12/30 09:55:14;;;;;;;25.20;10.55;;;;;;;12.27;63.17;100614.78;1782875;79;25667;-56
2020/12/30 09:57:43;;;;;;;15.93;8.65;;;;;;;12.28;62.79;100602.48;1765749;79;25667;-56
2020/12/30 10:00:11;;;;;;;32.15;9.20;;;;;;;12.21;62.70;100608.14;1765474;80;27775;-56
2020/12/30 10:02:38;;;;;;;23.67;9.38;;;;;;;12.14;62.02;100597.61;1782004;79;26124;-56
2020/12/30 10:05:06;;;;;;;19.75;8.65;;;;;;;12.26;62.89;100591.50;1779220;79;26350;-56
2020/12/30 10:07:36;;;;;;;17.70;8.60;;;;;;;12.49;62.21;100598.17;1792650;79;25650;-56
2020/12/30 10:10:05;;;;;;;15.83;9.13;;;;;;;12.50;62.17;100590.92;1779461;79;25843;-56
2020/12/30 10:12:37;;;;;;;17.98;7.58;;;;;;;12.44;61.41;100568.09;1778813;79;27581;-56
2020/12/30 10:15:03;;;;;;;16.67;7.45;;;;;;;12.30;61.99;100564.59;1778769;79;25707;-56
2020/12/30 10:17:31;;;;;;;14.85;7.58;;;;;;;12.18;62.08;100563.45;1779813;79;25772;-56
2020/12/30 10:19:59;;;;;;;19.45;8.40;;;;;;;12.05;62.21;100575.95;1780913;79;25674;-55
2020/12/30 10:22:26;;;;;;;18.77;7.45;;;;;;;11.94;62.27;100564.49;1791961;79;25702;-55
2020/12/30 10:24:57;;;;;;;22.70;8.25;;;;;;;11.86;63.17;100566.09;1802806;77;27633;-56
2020/12/30 10:27:25;;;;;;;18.90;7.85;;;;;;;12.07;63.20;100565.52;1813874;79;25713;-56
2020/12/30 10:29:54;;;;;;;17.10;9.23;;;;;;;12.01;63.18;100557.02;1814044;78;25702;-56
2020/12/30 10:32:21;;;;;;;18.67;7.65;;;;;;;11.98;62.77;100544.34;1813930;79;25682;-56
2020/12/30 10:34:49;;;;;;;26.93;10.18;;;;;;;11.95;62.92;100544.63;1814043;79;25666;-56
2020/12/30 10:37:18;;;;;;;22.90;11.85;;;;;;;11.83;63.22;100538.59;1813978;79;27389;-56
2020/12/30 10:39:48;;;;;;;28.90;12.93;;;;;;;11.81;63.17;100540.59;1813614;79;26189;-56
2020/12/30 10:42:17;;;;;;;28.90;13.72;;;;;;;11.70;63.77;100530.83;1798260;79;25621;-56
2020/12/30 10:44:45;;;;;;;27.60;11.88;;;;;;;11.64;64.07;100539.52;1809915;79;25730;-56
2020/12/30 10:47:13;;;;;;;29.65;11.75;;;;;;;11.52;64.15;100545.61;1737493;81;25713;-56
2020/12/30 10:49:41;;;;;;;19.23;9.73;;;;;;;11.49;64.90;100541.38;1795858;79;27434;-56
2020/12/30 10:52:09;;;;;;;34.90;11.48;;;;;;;11.52;65.37;100538.87;1780918;79;25685;-57
2020/12/30 10:54:42;;;;;;;26.52;9.75;;;;;;;11.62;65.38;100539.69;1810732;78;25652;-56
2020/12/30 10:57:06;;;;;;;19.50;9.00;;;;;;;11.69;65.83;100537.25;1805759;79;25665;-56
2020/12/30 10:59:36;;;;;;;24.10;9.48;;;;;;;11.81;65.74;100529.30;1778844;80;26073;-56
2020/12/30 11:02:04;;;;;;;24.00;8.65;;;;;;;11.89;65.74;100533.95;1778919;80;27518;-56
2020/12/30 11:04:32;;;;;;;15.80;8.60;;;;;;;11.89;65.22;100537.47;1778713;80;25793;-56
2020/12/30 11:07:02;;;;;;;21.20;8.85;;;;;;;11.86;65.06;100531.54;1778779;80;25446;-55
2020/12/30 11:09:31;;;;;;;16.87;7.25;;;;;;;11.87;65.67;100535.45;1778799;80;26119;-56
2020/12/30 11:11:58;;;;;;;19.05;7.28;;;;;;;11.96;65.29;100525.59;1778711;80;26023;-56
2020/12/30 11:14:28;;;;;;;19.90;8.00;;;;;;;12.02;64.84;100532.27;1778713;80;28859;-56
2020/12/30 11:16:56;;;;;;;26.57;8.73;;;;;;;12.01;64.87;100532.75;1799226;79;25709;-55
2020/12/30 11:19:24;;;;;;;23.00;7.62;;;;;;;12.04;64.91;100535.67;1802845;79;25648;-56
2020/12/30 11:21:54;;;;;;;24.50;7.97;;;;;;;12.05;64.83;100534.16;1810689;79;25637;-56
2020/12/30 11:24:22;;;;;;;22.98;6.83;;;;;;;12.11;64.07;100532.70;1789545;79;26232;-56
2020/12/30 11:26:50;;;;;;;23.07;8.00;;;;;;;12.10;63.69;100535.56;1770040;80;27509;-56
2020/12/30 11:29:18;;;;;;;22.98;8.48;;;;;;;12.07;63.76;100533.16;1769970;81;25726;-56
2020/12/30 11:31:46;;;;;;;28.50;7.70;;;;;;;12.04;64.34;100526.23;1769809;80;25690;-56
2020/12/30 11:34:15;;;;;;;23.20;7.35;;;;;;;12.00;64.35;100523.48;1770025;81;26132;-54
2020/12/30 11:36:45;;;;;;;24.52;7.53;;;;;;;11.98;64.78;100529.03;1769824;80;26193;-56
2020/12/30 11:39:14;;;;;;;21.90;8.13;;;;;;;11.97;64.95;100526.46;1770027;81;27457;-56
2020/12/30 11:41:41;;;;;;;20.10;6.97;;;;;;;11.97;65.05;100535.42;1784830;79;26605;-56
2020/12/30 11:44:10;;;;;;;16.27;6.33;;;;;;;11.98;65.21;100530.38;1810134;79;26394;-56